Horizon — WDH3298 — position and weather

sailwx.info

Track history (hours):
 
Tides and Currents Weather Stations Pressure Air Temp Water Temp Dewpoint Dewpoint Depression Visibility Wind Speed Wind Dir Waves Ship Positions

Horizon

Owner: Horizon Charters Inc., San Diego, CA. More information available from US FCC via Universal Licensing System and Coast Guard Vessel Documentation Center.

Last reported at 2018-Aug-20 00:56 UTC. Time now 2018-Aug-21 03:56 UTC.
Position N 29°08' W 118°17'.

Length 22 m.

Type: Diving. MMSI: 338776000.

Date/timePositionNaut miles runAvg speedWind from/ knotsBaromVisibWave heightAir tempDewpointWater temp
2018-Aug-20 00:56N 29°08' W 118°17'0 0.0
2018-Aug-20 00:14N 29°08' W 118°17'0 0.0
2018-Aug-19 22:11N 29°08' W 118°17'0 0.1
2018-Aug-19 22:00N 29°08' W 118°17'0 0.0
2018-Aug-19 20:16N 29°08' W 118°17'0 0.0
2018-Aug-19 19:49N 29°08' W 118°17'0 0.0
2018-Aug-19 19:19N 29°08' W 118°17'0 0.1
2018-Aug-19 18:58N 29°08' W 118°17'0 0.0
2018-Aug-19 17:08N 29°08' W 118°17'0 0.0
2018-Aug-19 17:00N 29°08' W 118°17'0 0.0
2018-Aug-19 15:55N 29°08' W 118°17'0 0.0
2018-Aug-19 11:00N 29°08' W 118°17'0 0.0
2018-Aug-19 10:24N 29°08' W 118°17'0 0.0
2018-Aug-19 09:47N 29°08' W 118°17'180 7.6
2018-Aug-18 10:04N 32°03' W 117°28'210.2
2018-Aug-18 09:51N 32°05' W 117°27'410.3
2018-Aug-18 09:30N 32°08' W 117°26'610.5
2018-Aug-18 08:57N 32°14' W 117°25'510.4
2018-Aug-18 08:30N 32°19' W 117°23'510.5
2018-Aug-18 08:00N 32°24' W 117°22'510.4
2018-Aug-18 07:30N 32°28' W 117°19'510.3
2018-Aug-18 07:00N 32°33' W 117°16'510.3
2018-Aug-18 06:30N 32°38' W 117°14'5 9.8
2018-Aug-18 06:00N 32°43' W 117°13'1 1.7
2018-Aug-18 05:30N 32°43' W 117°14'0 0.0
2018-Aug-18 05:00N 32°43' W 117°14'0 0.0
2018-Aug-18 04:30N 32°43' W 117°14'0 0.0
2018-Aug-18 04:00N 32°43' W 117°14'0 0.0
2018-Aug-18 03:30N 32°43' W 117°14'0 0.0
2018-Aug-18 03:00N 32°43' W 117°14'0 0.0
2018-Aug-18 02:30N 32°43' W 117°14'0 0.0
2018-Aug-18 02:00N 32°43' W 117°14'0 0.0
2018-Aug-18 01:30N 32°43' W 117°14'0 0.0
2018-Aug-18 01:00N 32°43' W 117°14'0 0.0
2018-Aug-18 00:30N 32°43' W 117°14'0 0.0
2018-Aug-18 00:00N 32°43' W 117°14'0 0.2
2018-Aug-17 23:30N 32°43' W 117°14'0 0.8
2018-Aug-17 22:58N 32°43' W 117°13'4 9.2
2018-Aug-17 22:30N 32°39' W 117°14'5 9.7
2018-Aug-17 22:00N 32°35' W 117°16'5 9.8
2018-Aug-17 21:30N 32°30' W 117°18'510.0
2018-Aug-17 21:00N 32°26' W 117°21'510.0
2018-Aug-17 20:28N 32°20' W 117°22'  
2018-Aug-13 12:34N 31°23' W 117°38'110.7
2018-Aug-13 12:29N 31°24' W 117°37'810.8
2018-Aug-13 11:45N 31°32' W 117°35'311.0
2018-Aug-13 11:30N 31°34' W 117°35'611.1
2018-Aug-13 11:00N 31°40' W 117°33'611.3
2018-Aug-13 10:30N 31°45' W 117°32'611.0
2018-Aug-13 10:00N 31°50' W 117°30'510.5
2018-Aug-13 09:30N 31°55' W 117°29'510.2
2018-Aug-13 09:00N 32°00' W 117°27'510.3
2018-Aug-13 08:30N 32°05' W 117°26'510.4
2018-Aug-13 08:00N 32°10' W 117°24'510.3
2018-Aug-13 07:30N 32°15' W 117°23'510.4
2018-Aug-13 06:59N 32°21' W 117°21'510.3
2018-Aug-13 06:30N 32°26' W 117°20'5 9.9
2018-Aug-13 06:00N 32°30' W 117°18'5 9.9
2018-Aug-13 05:30N 32°35' W 117°16'5 9.8
2018-Aug-13 05:00N 32°39' W 117°14'4 8.1
2018-Aug-13 04:30N 32°43' W 117°13'0 0.4
2018-Aug-13 04:00N 32°43' W 117°14'0 0.0
2018-Aug-13 03:30N 32°43' W 117°14'0 0.0
2018-Aug-13 03:00N 32°43' W 117°14'0 0.0
2018-Aug-13 02:30N 32°43' W 117°14'0 0.0
2018-Aug-13 02:00N 32°43' W 117°14'0 0.0
2018-Aug-13 01:30N 32°43' W 117°14'0 0.0
2018-Aug-13 01:00N 32°43' W 117°14'0 0.0
2018-Aug-13 00:30N 32°43' W 117°14'0 0.0
2018-Aug-13 00:00N 32°43' W 117°14'0 0.0
2018-Aug-12 23:30N 32°43' W 117°14'0 0.0
2018-Aug-12 23:00N 32°43' W 117°14'0 0.0
2018-Aug-12 22:30N 32°43' W 117°14'0 0.0
2018-Aug-12 22:00N 32°43' W 117°14'0 0.0
2018-Aug-12 21:30N 32°43' W 117°14'0 0.0
2018-Aug-12 21:00N 32°43' W 117°14'0 0.0
2018-Aug-12 20:30N 32°43' W 117°14'0 0.0
2018-Aug-11 20:41N 32°43' W 117°13'1 5.4
2018-Aug-11 20:30N 32°42' W 117°14'4 8.9
2018-Aug-11 20:00N 32°38' W 117°15'5 9.6
2018-Aug-11 19:30N 32°36' W 117°20'4 7.1
2018-Aug-11 19:01N 32°34' W 117°24'0 0.9
2018-Aug-11 18:31N 32°34' W 117°24'0 0.8
2018-Aug-11 18:00N 32°35' W 117°24'0 0.7
2018-Aug-11 17:30N 32°35' W 117°24'0 0.8
2018-Aug-11 17:00N 32°35' W 117°24'0 0.7
2018-Aug-11 16:30N 32°36' W 117°24'0 0.7
2018-Aug-11 16:00N 32°36' W 117°24'0 0.6
2018-Aug-11 15:30N 32°36' W 117°24'1 1.5
2018-Aug-11 15:01N 32°36' W 117°24'510.1
2018-Aug-11 14:30N 32°31' W 117°27'510.2
2018-Aug-11 14:00N 32°26' W 117°28'5 9.9
2018-Aug-11 13:30N 32°21' W 117°29'5 9.9
2018-Aug-11 13:00N 32°17' W 117°30'5 9.7
2018-Aug-11 12:30N 32°12' W 117°31'5 9.7
2018-Aug-11 12:00N 32°07' W 117°32'5 9.4
2018-Aug-11 11:30N 32°02' W 117°33'5 9.2
2018-Aug-11 11:00N 31°58' W 117°34'5 9.2
2018-Aug-11 10:30N 31°53' W 117°35'6 8.9
2018-Aug-11 09:49N 31°47' W 117°36'  
Track history (hours):
 
Tides and Currents Weather Stations Pressure Air Temp Water Temp Dewpoint Dewpoint Depression Visibility Wind Speed Wind Dir Waves Ship Positions

Horizon

Owner: Horizon Charters Inc., San Diego, CA. More information available from US FCC via Universal Licensing System and Coast Guard Vessel Documentation Center.

Last reported at 2018-Aug-20 00:56 UTC. Time now 2018-Aug-21 03:56 UTC.
Position N 29°08' W 118°17'.

Length 22 m.

Type: Diving. MMSI: 338776000.

Date/timePositionNaut miles runAvg speedWind from/ knotsBaromVisibWave heightAir tempDewpointWater temp
2018-Aug-20 00:56N 29°08' W 118°17'0 0.0
2018-Aug-20 00:14N 29°08' W 118°17'0 0.0
2018-Aug-19 22:11N 29°08' W 118°17'0 0.1
2018-Aug-19 22:00N 29°08' W 118°17'0 0.0
2018-Aug-19 20:16N 29°08' W 118°17'0 0.0
2018-Aug-19 19:49N 29°08' W 118°17'0 0.0
2018-Aug-19 19:19N 29°08' W 118°17'0 0.1
2018-Aug-19 18:58N 29°08' W 118°17'0 0.0
2018-Aug-19 17:08N 29°08' W 118°17'0 0.0
2018-Aug-19 17:00N 29°08' W 118°17'0 0.0
2018-Aug-19 15:55N 29°08' W 118°17'0 0.0
2018-Aug-19 11:00N 29°08' W 118°17'0 0.0
2018-Aug-19 10:24N 29°08' W 118°17'0 0.0
2018-Aug-19 09:47N 29°08' W 118°17'180 7.6
2018-Aug-18 10:04N 32°03' W 117°28'210.2
2018-Aug-18 09:51N 32°05' W 117°27'410.3
2018-Aug-18 09:30N 32°08' W 117°26'610.5
2018-Aug-18 08:57N 32°14' W 117°25'510.4
2018-Aug-18 08:30N 32°19' W 117°23'510.5
2018-Aug-18 08:00N 32°24' W 117°22'510.4
2018-Aug-18 07:30N 32°28' W 117°19'510.3
2018-Aug-18 07:00N 32°33' W 117°16'510.3
2018-Aug-18 06:30N 32°38' W 117°14'5 9.8
2018-Aug-18 06:00N 32°43' W 117°13'1 1.7
2018-Aug-18 05:30N 32°43' W 117°14'0 0.0
2018-Aug-18 05:00N 32°43' W 117°14'0 0.0
2018-Aug-18 04:30N 32°43' W 117°14'0 0.0
2018-Aug-18 04:00N 32°43' W 117°14'0 0.0
2018-Aug-18 03:30N 32°43' W 117°14'0 0.0
2018-Aug-18 03:00N 32°43' W 117°14'0 0.0
2018-Aug-18 02:30N 32°43' W 117°14'0 0.0
2018-Aug-18 02:00N 32°43' W 117°14'0 0.0
2018-Aug-18 01:30N 32°43' W 117°14'0 0.0
2018-Aug-18 01:00N 32°43' W 117°14'0 0.0
2018-Aug-18 00:30N 32°43' W 117°14'0 0.0
2018-Aug-18 00:00N 32°43' W 117°14'0 0.2
2018-Aug-17 23:30N 32°43' W 117°14'0 0.8
2018-Aug-17 22:58N 32°43' W 117°13'4 9.2
2018-Aug-17 22:30N 32°39' W 117°14'5 9.7
2018-Aug-17 22:00N 32°35' W 117°16'5 9.8
2018-Aug-17 21:30N 32°30' W 117°18'510.0
2018-Aug-17 21:00N 32°26' W 117°21'510.0
2018-Aug-17 20:28N 32°20' W 117°22'  
2018-Aug-13 12:34N 31°23' W 117°38'110.7
2018-Aug-13 12:29N 31°24' W 117°37'810.8
2018-Aug-13 11:45N 31°32' W 117°35'311.0
2018-Aug-13 11:30N 31°34' W 117°35'611.1
2018-Aug-13 11:00N 31°40' W 117°33'611.3
2018-Aug-13 10:30N 31°45' W 117°32'611.0
2018-Aug-13 10:00N 31°50' W 117°30'510.5
2018-Aug-13 09:30N 31°55' W 117°29'510.2
2018-Aug-13 09:00N 32°00' W 117°27'510.3
2018-Aug-13 08:30N 32°05' W 117°26'510.4
2018-Aug-13 08:00N 32°10' W 117°24'510.3
2018-Aug-13 07:30N 32°15' W 117°23'510.4
2018-Aug-13 06:59N 32°21' W 117°21'510.3
2018-Aug-13 06:30N 32°26' W 117°20'5 9.9
2018-Aug-13 06:00N 32°30' W 117°18'5 9.9
2018-Aug-13 05:30N 32°35' W 117°16'5 9.8
2018-Aug-13 05:00N 32°39' W 117°14'4 8.1
2018-Aug-13 04:30N 32°43' W 117°13'0 0.4
2018-Aug-13 04:00N 32°43' W 117°14'0 0.0
2018-Aug-13 03:30N 32°43' W 117°14'0 0.0
2018-Aug-13 03:00N 32°43' W 117°14'0 0.0
2018-Aug-13 02:30N 32°43' W 117°14'0 0.0
2018-Aug-13 02:00N 32°43' W 117°14'0 0.0
2018-Aug-13 01:30N 32°43' W 117°14'0 0.0
2018-Aug-13 01:00N 32°43' W 117°14'0 0.0
2018-Aug-13 00:30N 32°43' W 117°14'0 0.0
2018-Aug-13 00:00N 32°43' W 117°14'0 0.0
2018-Aug-12 23:30N 32°43' W 117°14'0 0.0
2018-Aug-12 23:00N 32°43' W 117°14'0 0.0
2018-Aug-12 22:30N 32°43' W 117°14'0 0.0
2018-Aug-12 22:00N 32°43' W 117°14'0 0.0
2018-Aug-12 21:30N 32°43' W 117°14'0 0.0
2018-Aug-12 21:00N 32°43' W 117°14'0 0.0
2018-Aug-12 20:30N 32°43' W 117°14'0 0.0
2018-Aug-11 20:41N 32°43' W 117°13'1 5.4
2018-Aug-11 20:30N 32°42' W 117°14'4 8.9
2018-Aug-11 20:00N 32°38' W 117°15'5 9.6
2018-Aug-11 19:30N 32°36' W 117°20'4 7.1
2018-Aug-11 19:01N 32°34' W 117°24'0 0.9
2018-Aug-11 18:31N 32°34' W 117°24'0 0.8
2018-Aug-11 18:00N 32°35' W 117°24'0 0.7
2018-Aug-11 17:30N 32°35' W 117°24'0 0.8
2018-Aug-11 17:00N 32°35' W 117°24'0 0.7
2018-Aug-11 16:30N 32°36' W 117°24'0 0.7
2018-Aug-11 16:00N 32°36' W 117°24'0 0.6
2018-Aug-11 15:30N 32°36' W 117°24'1 1.5
2018-Aug-11 15:01N 32°36' W 117°24'510.1
2018-Aug-11 14:30N 32°31' W 117°27'510.2
2018-Aug-11 14:00N 32°26' W 117°28'5 9.9
2018-Aug-11 13:30N 32°21' W 117°29'5 9.9
2018-Aug-11 13:00N 32°17' W 117°30'5 9.7
2018-Aug-11 12:30N 32°12' W 117°31'5 9.7
2018-Aug-11 12:00N 32°07' W 117°32'5 9.4
2018-Aug-11 11:30N 32°02' W 117°33'5 9.2
2018-Aug-11 11:00N 31°58' W 117°34'5 9.2
2018-Aug-11 10:30N 31°53' W 117°35'6 8.9
2018-Aug-11 09:49N 31°47' W 117°36'  

Dump ship's entire track history